Time;durP1;ratioP1;P1;durP2;ratioP2;P2;SDS_P1;SDS_P2;PMS_P1;PMS_P2;Temp;Humidity;BMP_temperature;BMP_pressure;BME280_temperature;BME280_humidity;BME280_pressure;Samples;Min_cycle;Max_cycle;Signal;HPM_P1;HPM_P2
2024/01/24 00:00:31;;;;;;;;;0.00;0.00;;;;;17.51;100.00;101859.63;2095246;28;46274;-66
2024/01/24 00:01:32;;;;;;;;;0.33;0.33;;;;;17.53;100.00;101853.31;2095344;28;46781;-66
2024/01/24 00:02:32;;;;;;;;;0.00;0.00;;;;;17.54;100.00;101851.50;2095102;28;46580;-66
2024/01/24 00:03:32;;;;;;;;;0.00;0.00;;;;;17.56;100.00;101863.94;2077552;28;46235;-66
2024/01/24 00:04:33;;;;;;;;;0.00;0.00;;;;;17.55;100.00;101878.28;2086449;28;46637;-65
2024/01/24 00:05:33;;;;;;;;;0.00;0.00;;;;;17.53;100.00;101869.44;2095249;28;46375;-67
2024/01/24 00:06:33;;;;;;;;;0.00;0.00;;;;;17.55;100.00;101875.63;2093973;28;46677;-66
2024/01/24 00:07:34;;;;;;;;;0.00;0.00;;;;;17.56;100.00;101866.63;2094293;28;46735;-66
2024/01/24 00:08:34;;;;;;;;;0.00;0.00;;;;;17.56;100.00;101860.38;2095237;28;45922;-66
2024/01/24 00:09:35;;;;;;;;;0.00;0.00;;;;;17.56;100.00;101873.81;2095816;28;45989;-66
2024/01/24 00:10:35;;;;;;;;;0.25;0.00;;;;;17.55;100.00;101867.56;2095475;28;45261;-66
2024/01/24 00:11:36;;;;;;;;;0.00;0.00;;;;;17.59;100.00;101871.00;2094677;28;45151;-65
2024/01/24 00:12:36;;;;;;;;;0.00;0.00;;;;;17.57;100.00;101879.13;2094888;28;47107;-67
2024/01/24 00:13:37;;;;;;;;;0.00;0.00;;;;;17.58;100.00;101869.25;2095263;28;46525;-66
2024/01/24 00:14:37;;;;;;;;;0.00;0.00;;;;;17.57;100.00;101879.13;2095194;28;46619;-67
2024/01/24 00:15:38;;;;;;;;;0.00;0.00;;;;;17.56;100.00;101869.31;2094967;28;46335;-66
2024/01/24 00:16:40;;;;;;;;;0.00;0.00;;;;;17.58;100.00;101875.50;2095850;28;46375;-66
2024/01/24 00:17:40;;;;;;;;;0.00;0.00;;;;;17.59;100.00;101876.38;2094966;28;45390;-66
2024/01/24 00:18:41;;;;;;;;;0.00;0.00;;;;;17.58;100.00;101878.19;2094633;28;46318;-67
2024/01/24 00:19:42;;;;;;;;;0.00;0.00;;;;;17.58;100.00;101864.78;2095392;28;46833;-65
2024/01/24 00:20:42;;;;;;;;;0.00;0.00;;;;;17.59;100.00;101868.34;2095545;28;46485;-66
2024/01/24 00:21:42;;;;;;;;;0.00;0.00;;;;;17.63;100.00;101865.47;2095273;28;46021;-66
2024/01/24 00:22:42;;;;;;;;;0.00;0.00;;;;;17.65;100.00;101868.13;2095420;28;46836;-66
2024/01/24 00:23:43;;;;;;;;;0.00;0.00;;;;;17.67;100.00;101860.91;2094902;28;46618;-66
2024/01/24 00:24:43;;;;;;;;;0.00;0.00;;;;;17.68;100.00;101868.03;2094215;28;46662;-66
2024/01/24 00:25:43;;;;;;;;;0.00;0.00;;;;;17.66;100.00;101869.91;2094297;28;46731;-66
2024/01/24 00:26:44;;;;;;;;;0.00;0.00;;;;;17.69;100.00;101864.47;2095202;28;47629;-66
2024/01/24 00:27:44;;;;;;;;;0.00;0.00;;;;;17.71;100.00;101851.84;2094391;28;46274;-66
2024/01/24 00:28:45;;;;;;;;;0.00;0.00;;;;;17.74;100.00;101856.25;2094229;28;44987;-66
2024/01/24 00:29:45;;;;;;;;;0.00;0.00;;;;;17.72;100.00;101856.28;2095533;28;46016;-66
2024/01/24 00:30:46;;;;;;;;;0.00;0.00;;;;;17.72;100.00;101852.72;2095389;28;46607;-66
2024/01/24 00:31:48;;;;;;;;;0.00;0.00;;;;;17.72;100.00;101850.06;2095378;28;46403;-67
2024/01/24 00:32:48;;;;;;;;;0.75;0.00;;;;;17.73;100.00;101851.81;2094799;28;46023;-66
2024/01/24 00:33:52;;;;;;;;;0.00;0.00;;;;;17.71;100.00;101856.34;2095379;28;46137;-67
2024/01/24 00:34:52;;;;;;;;;0.00;0.00;;;;;17.68;100.00;101868.03;2094472;28;46810;-66
2024/01/24 00:35:52;;;;;;;;;0.00;0.00;;;;;17.68;100.00;101865.34;2094838;28;46900;-67
2024/01/24 00:36:53;;;;;;;;;0.00;0.00;;;;;17.68;100.00;101862.66;2095101;28;47036;-66
2024/01/24 00:37:53;;;;;;;;;0.00;0.00;;;;;17.62;100.00;101854.81;2095350;28;46547;-65
2024/01/24 00:38:53;;;;;;;;;0.00;0.00;;;;;17.65;100.00;101846.63;2094205;28;45636;-67
2024/01/24 00:39:54;;;;;;;;;0.00;0.00;;;;;17.65;100.00;101850.19;2094483;28;45423;-67
2024/01/24 00:40:54;;;;;;;;;0.00;0.00;;;;;17.67;100.00;101852.00;2095090;28;46624;-67
2024/01/24 00:41:58;;;;;;;;;0.00;0.00;;;;;17.64;100.00;101856.50;2095200;28;46379;-67
2024/01/24 00:42:58;;;;;;;;;0.00;0.00;;;;;17.61;100.00;101866.47;2095383;28;47176;-67
2024/01/24 00:43:59;;;;;;;;;0.00;0.00;;;;;17.65;100.00;101852.88;2095252;28;46184;-67
2024/01/24 00:44:59;;;;;;;;;0.00;0.00;;;;;17.65;100.00;101860.94;2094348;28;45735;-66
2024/01/24 00:46:00;;;;;;;;;0.00;0.00;;;;;17.65;100.00;101855.56;2094392;28;46287;-66
2024/01/24 00:47:00;;;;;;;;;0.00;0.00;;;;;17.66;100.00;101875.28;2094814;28;46673;-66
2024/01/24 00:48:00;;;;;;;;;0.00;0.00;;;;;17.66;100.00;101859.16;2094901;28;45035;-66
2024/01/24 00:49:08;;;;;;;;;0.00;0.00;;;;;17.68;100.00;101867.16;2094855;28;46410;-67
2024/01/24 00:50:09;;;;;;;;;0.00;0.00;;;;;17.61;100.00;101867.34;2095711;28;47096;-67
2024/01/24 00:51:09;;;;;;;;;0.00;0.00;;;;;17.62;100.00;101865.53;2095480;28;45210;-66
2024/01/24 00:52:10;;;;;;;;;0.00;0.00;;;;;17.60;100.00;101862.91;2095014;28;46258;-68
2024/01/24 00:53:15;;;;;;;;;0.00;0.00;;;;;17.68;100.00;101880.59;2095119;28;46369;-67
2024/01/24 00:54:16;;;;;;;;;0.00;0.00;;;;;17.64;100.00;101869.03;2095058;28;45557;-66
2024/01/24 00:55:16;;;;;;;;;0.00;0.00;;;;;17.71;100.00;101864.41;2095234;28;46251;-66
2024/01/24 00:56:17;;;;;;;;;0.00;0.00;;;;;17.65;100.00;101869.00;2095260;28;46656;-67
2024/01/24 00:57:17;;;;;;;;;0.00;0.00;;;;;17.70;100.00;101876.94;2095049;28;46637;-66
2024/01/24 00:58:17;;;;;;;;;0.00;0.00;;;;;17.65;100.00;101870.81;2095677;28;46506;-66
2024/01/24 00:59:18;;;;;;;;;0.00;0.00;;;;;17.72;100.00;101875.09;2095089;28;46786;-67
2024/01/24 01:00:18;;;;;;;;;0.00;0.00;;;;;17.73;100.00;101875.97;2095331;28;46425;-66
2024/01/24 01:01:19;;;;;;;;;0.00;0.00;;;;;17.74;100.00;101869.66;2095552;28;46537;-67
2024/01/24 01:02:20;;;;;;;;;0.00;0.00;;;;;17.75;100.00;101863.38;2093090;28;46530;-66
2024/01/24 01:03:20;;;;;;;;;0.00;0.00;;;;;17.82;100.00;101886.41;2095361;28;46322;-66
2024/01/24 01:04:21;;;;;;;;;0.00;0.00;;;;;17.84;100.00;101879.19;2095354;28;46351;-67
2024/01/24 01:05:21;;;;;;;;;0.00;0.00;;;;;17.83;100.00;101872.94;2095274;28;46740;-67
2024/01/24 01:06:22;;;;;;;;;0.00;0.00;;;;;17.87;100.00;101868.31;2095073;28;46240;-67
2024/01/24 01:07:22;;;;;;;;;0.00;0.00;;;;;17.85;100.00;101860.31;2095235;28;46170;-66
2024/01/24 01:08:23;;;;;;;;;0.00;0.00;;;;;17.82;100.00;101878.34;2094641;28;46527;-67
2024/01/24 01:09:23;;;;;;;;;0.00;0.00;;;;;17.80;100.00;101873.03;2095306;28;46240;-67
2024/01/24 01:10:23;;;;;;;;;0.00;0.00;;;;;17.79;100.00;101860.53;2095159;28;46866;-67
2024/01/24 01:11:24;;;;;;;;;0.00;0.00;;;;;17.73;100.00;101867.91;2094954;28;46558;-67
2024/01/24 01:12:24;;;;;;;;;0.00;0.00;;;;;17.71;100.00;101873.34;2095117;28;47164;-67
2024/01/24 01:13:24;;;;;;;;;0.00;0.00;;;;;17.71;100.00;101885.88;2095365;28;46275;-66
2024/01/24 01:14:25;;;;;;;;;0.00;0.00;;;;;17.70;100.00;101884.13;2095706;28;45405;-67
2024/01/24 01:15:25;;;;;;;;;0.00;0.00;;;;;17.72;100.00;101875.09;2095015;28;46363;-67
2024/01/24 01:16:26;;;;;;;;;0.00;0.00;;;;;17.72;100.00;101875.09;2094755;28;46553;-67
2024/01/24 01:17:26;;;;;;;;;0.00;0.00;;;;;17.73;100.00;101876.84;2094995;28;45797;-67
2024/01/24 01:18:26;;;;;;;;;0.00;0.00;;;;;17.72;100.00;101876.91;2094391;28;46213;-67
2024/01/24 01:19:26;;;;;;;;;0.00;0.00;;;;;17.73;100.00;101884.91;2094308;28;46512;-66
2024/01/24 01:20:27;;;;;;;;;0.00;0.00;;;;;17.72;100.00;101876.91;2094055;28;46893;-66
2024/01/24 01:21:27;;;;;;;;;0.00;0.00;;;;;17.77;100.00;101882.97;2094452;28;46287;-65
2024/01/24 01:22:27;;;;;;;;;0.00;0.00;;;;;17.76;100.00;101879.41;2095193;28;46279;-66
2024/01/24 01:23:29;;;;;;;;;0.00;0.00;;;;;17.78;100.00;101871.31;2094838;28;46314;-68
2024/01/24 01:24:29;;;;;;;;;0.00;0.00;;;;;17.79;100.00;101870.41;2094004;28;46388;-66
2024/01/24 01:25:29;;;;;;;;;0.00;0.00;;;;;17.72;100.00;101883.16;2095482;28;46792;-66
2024/01/24 01:26:32;;;;;;;;;0.00;0.00;;;;;17.71;100.00;101878.72;2094718;28;46881;-66
2024/01/24 01:27:33;;;;;;;;;0.00;0.00;;;;;17.77;100.00;101882.97;2094427;28;46646;-67
2024/01/24 01:28:33;;;;;;;;;0.00;0.00;;;;;17.75;100.00;101880.34;2094735;28;44953;-66
2024/01/24 01:29:33;;;;;;;;;0.00;0.00;;;;;17.69;100.00;101877.88;2095272;28;46488;-67
2024/01/24 01:30:34;;;;;;;;;0.00;0.00;;;;;17.78;100.00;101871.31;2095377;28;46826;-66
2024/01/24 01:31:34;;;;;;;;;0.00;0.00;;;;;17.79;100.00;101870.41;2095431;28;46751;-66
2024/01/24 01:32:34;;;;;;;;;0.00;0.00;;;;;17.79;100.00;101873.09;2094793;28;46710;-67
2024/01/24 01:33:35;;;;;;;;;0.00;0.00;;;;;17.79;100.00;101867.72;2095212;28;46771;-67
2024/01/24 01:34:35;;;;;;;;;0.00;0.00;;;;;17.80;100.00;101877.53;2094535;28;45945;-68
2024/01/24 01:35:35;;;;;;;;;0.00;0.00;;;;;17.81;100.00;101868.53;2093477;28;46331;-66
2024/01/24 01:36:36;;;;;;;;;0.00;0.00;;;;;17.81;100.00;101861.38;2095099;28;46226;-67
2024/01/24 01:37:39;;;;;;;;;0.00;0.00;;;;;17.78;100.00;101866.81;2094613;28;46231;-67
2024/01/24 01:38:40;;;;;;;;;0.00;0.00;;;;;17.80;100.00;101866.78;2095366;28;46386;-67
2024/01/24 01:39:40;;;;;;;;;0.00;0.00;;;;;17.80;100.00;101851.56;2094897;28;46317;-67
2024/01/24 01:40:41;;;;;;;;;0.00;0.00;;;;;17.80;100.00;101873.03;2095123;28;46168;-67
2024/01/24 01:41:45;;;;;;;;;0.00;0.00;;;;;17.81;100.00;101866.75;2094925;28;47226;-67
2024/01/24 01:42:46;;;;;;;;;0.00;0.00;;;;;17.79;100.00;101865.03;2095181;28;45893;-67
2024/01/24 01:43:46;;;;;;;;;0.00;0.00;;;;;17.80;100.00;101866.78;2095189;28;46380;-66
2024/01/24 01:44:47;;;;;;;;;0.00;0.00;;;;;17.78;100.00;101868.63;2095248;28;45442;-67
2024/01/24 01:45:47;;;;;;;;;0.00;0.00;;;;;17.76;100.00;101868.69;2094696;28;45398;-67
2024/01/24 01:46:51;;;;;;;;;0.00;0.00;;;;;17.75;100.00;101877.66;2095177;28;46663;-66
2024/01/24 01:47:51;;;;;;;;;0.00;0.00;;;;;17.73;100.00;101868.78;2095561;28;47205;-67
2024/01/24 01:48:56;;;;;;;;;0.00;0.00;;;;;17.75;100.00;101884.84;2095212;28;46505;-67
2024/01/24 01:49:56;;;;;;;;;0.00;0.00;;;;;17.75;100.00;101890.22;2095187;28;46578;-68
2024/01/24 01:50:57;;;;;;;;;0.00;0.00;;;;;17.75;100.00;101891.09;2095424;28;46080;-67
2024/01/24 01:51:57;;;;;;;;;0.00;0.00;;;;;17.74;100.00;101891.13;2094416;28;46537;-66
2024/01/24 01:52:58;;;;;;;;;0.00;0.00;;;;;17.74;100.00;101902.75;2092706;28;46837;-67
2024/01/24 01:53:59;;;;;;;;;0.00;0.00;;;;;17.73;100.00;101901.00;2094634;28;46736;-67
2024/01/24 01:55:00;;;;;;;;;0.00;0.00;;;;;17.75;100.00;101898.25;2094261;28;46409;-68
2024/01/24 01:56:00;;;;;;;;;0.00;0.00;;;;;17.74;100.00;101888.47;2094816;28;46651;-67
2024/01/24 01:57:02;;;;;;;;;0.00;0.00;;;;;17.73;100.00;101898.31;2094797;28;46250;-67
2024/01/24 01:58:03;;;;;;;;;0.00;0.00;;;;;17.73;100.00;101892.94;2094012;28;46084;-67
2024/01/24 01:59:05;;;;;;;;;0.00;0.00;;;;;17.75;100.00;101892.91;2094224;28;46804;-67
2024/01/24 02:00:08;;;;;;;;;0.00;0.00;;;;;17.74;100.00;101893.81;2095085;28;46765;-66
2024/01/24 02:01:08;;;;;;;;;0.00;0.00;;;;;17.75;100.00;101890.22;2094903;28;46846;-66
2024/01/24 02:02:10;;;;;;;;;0.00;0.00;;;;;17.74;100.00;101889.34;2095118;28;46437;-66
2024/01/24 02:03:11;;;;;;;;;0.00;0.00;;;;;17.76;100.00;101878.53;2094857;28;46427;-67
2024/01/24 02:04:12;;;;;;;;;0.00;0.00;;;;;17.74;100.00;101883.09;2095222;28;47495;-66
2024/01/24 02:05:14;;;;;;;;;0.00;0.00;;;;;17.73;100.00;101889.38;2096240;28;46908;-67
2024/01/24 02:06:15;;;;;;;;;0.00;0.00;;;;;17.74;100.00;101885.78;2095574;28;47002;-66
2024/01/24 02:07:15;;;;;;;;;0.00;0.00;;;;;17.75;100.00;101884.84;2095425;28;46238;-67
2024/01/24 02:08:15;;;;;;;;;0.00;0.00;;;;;17.74;100.00;101878.59;2096789;28;45960;-67
2024/01/24 02:09:16;;;;;;;;;0.00;0.00;;;;;17.74;100.00;101883.97;2096688;28;46672;-67
2024/01/24 02:10:16;;;;;;;;;0.00;0.00;;;;;17.74;100.00;101869.66;2110289;27;46297;-67
2024/01/24 02:11:17;;;;;;;;;0.00;0.00;;;;;17.74;100.00;101875.03;2111443;27;46575;-67
2024/01/24 02:12:18;;;;;;;;;0.00;0.00;;;;;17.73;100.00;101860.72;2096292;28;46425;-67
2024/01/24 02:13:19;;;;;;;;;0.00;0.00;;;;;17.74;100.00;101864.28;2096461;28;45809;-67
2024/01/24 02:14:20;;;;;;;;;0.00;0.00;;;;;17.74;100.00;101854.44;2096068;28;46331;-67
2024/01/24 02:15:21;;;;;;;;;0.00;0.00;;;;;17.73;100.00;101857.16;2096647;28;47740;-66
2024/01/24 02:16:21;;;;;;;;;0.00;0.00;;;;;17.73;100.00;101859.84;2095739;28;45599;-66
2024/01/24 02:17:21;;;;;;;;;0.00;0.00;;;;;17.74;100.00;101875.03;2096271;28;46230;-67
2024/01/24 02:18:22;;;;;;;;;0.00;0.00;;;;;17.73;100.00;101863.41;2096181;28;46927;-68
2024/01/24 02:19:22;;;;;;;;;0.00;0.00;;;;;17.73;100.00;101860.72;2095830;28;46544;-66
2024/01/24 02:20:23;;;;;;;;;0.00;0.00;;;;;17.74;100.00;101870.53;2096437;28;46564;-67
2024/01/24 02:21:24;;;;;;;;;0.00;0.00;;;;;17.75;100.00;101876.78;2096546;28;46443;-66
2024/01/24 02:22:24;;;;;;;;;0.00;0.00;;;;;17.74;100.00;101864.28;2096441;28;46833;-66
2024/01/24 02:23:26;;;;;;;;;0.00;0.00;;;;;17.74;100.00;101867.84;2096276;28;46671;-66
2024/01/24 02:24:26;;;;;;;;;0.00;0.00;;;;;17.74;100.00;101877.72;2096030;28;47268;-67
2024/01/24 02:25:27;;;;;;;;;0.00;0.00;;;;;17.74;100.00;101878.59;2096265;28;46184;-65
2024/01/24 02:26:27;;;;;;;;;0.00;0.00;;;;;17.75;100.00;101866.03;2096441;28;46035;-67
2024/01/24 02:27:28;;;;;;;;;0.00;0.00;;;;;17.75;100.00;101877.66;2095180;28;46370;-66
2024/01/24 02:28:28;;;;;;;;;0.00;0.00;;;;;17.72;100.00;101871.53;2094837;28;46556;-67
2024/01/24 02:29:28;;;;;;;;;0.00;0.00;;;;;17.80;100.00;101880.22;2096294;28;46197;-66
2024/01/24 02:30:29;;;;;;;;;0.00;0.00;;;;;17.72;100.00;101893.00;2087277;28;45769;-66
2024/01/24 02:31:29;;;;;;;;;0.00;0.00;;;;;17.79;100.00;101895.44;2087538;28;45850;-67
2024/01/24 02:32:29;;;;;;;;;0.00;0.00;;;;;17.82;100.00;101881.03;2095824;28;46106;-66
2024/01/24 02:33:30;;;;;;;;;1.00;0.00;;;;;17.80;100.00;101877.53;2096342;28;44951;-66
2024/01/24 02:34:30;;;;;;;;;0.00;0.00;;;;;17.78;100.00;101876.69;2097258;28;46576;-67
2024/01/24 02:35:30;;;;;;;;;0.00;0.00;;;;;17.73;100.00;101884.03;2096032;28;46506;-66
2024/01/24 02:36:31;;;;;;;;;0.00;0.00;;;;;17.74;100.00;101897.38;2096424;28;46417;-66
2024/01/24 02:37:31;;;;;;;;;0.00;0.00;;;;;17.62;100.00;101882.53;2096269;28;46651;-66
2024/01/24 02:38:31;;;;;;;;;0.00;0.00;;;;;17.58;100.00;101896.09;2096268;28;47059;-66
2024/01/24 02:39:32;;;;;;;;;0.00;0.00;;;;;17.54;100.00;101878.34;2095933;28;46690;-66
2024/01/24 02:40:32;;;;;;;;;0.00;0.00;;;;;17.53;100.00;101884.63;2095950;28;46193;-66
2024/01/24 02:41:33;;;;;;;;;0.00;0.00;;;;;17.51;100.00;101884.66;2096028;28;46206;-66
2024/01/24 02:42:33;;;;;;;;;0.00;0.00;;;;;17.50;100.00;101890.97;2096144;28;47037;-66
2024/01/24 02:43:34;;;;;;;;;0.00;0.00;;;;;17.50;100.00;101882.03;2095167;28;46583;-66
2024/01/24 02:44:35;;;;;;;;;0.00;0.00;;;;;17.50;100.00;101884.72;2094368;28;46500;-66
2024/01/24 02:45:35;;;;;;;;;0.00;0.00;;;;;17.49;100.00;101872.22;2095857;28;45883;-66
2024/01/24 02:46:35;;;;;;;;;0.00;0.00;;;;;17.48;100.00;101881.22;2096602;28;45424;-65
2024/01/24 02:47:36;;;;;;;;;0.00;0.00;;;;;17.47;100.00;101879.47;2096117;28;46637;-66
2024/01/24 02:48:37;;;;;;;;;0.00;0.00;;;;;17.63;100.00;101886.09;2095890;28;45899;-66
2024/01/24 02:49:39;;;;;;;;;0.00;0.00;;;;;17.55;100.00;101874.75;2096299;28;47103;-67
2024/01/24 02:50:39;;;;;;;;;0.00;0.00;;;;;17.52;100.00;101870.31;2095251;28;46382;-66
2024/01/24 02:51:39;;;;;;;;;0.00;0.00;;;;;17.67;100.00;101868.09;2096244;28;46488;-66
2024/01/24 02:52:39;;;;;;;;;0.00;0.00;;;;;17.69;100.00;101877.00;2096133;28;46324;-66
2024/01/24 02:53:40;;;;;;;;;0.00;0.00;;;;;17.61;100.00;101890.63;2095690;28;46212;-66
2024/01/24 02:54:41;;;;;;;;;0.00;0.00;;;;;17.68;100.00;101873.41;2096148;28;46472;-65
2024/01/24 02:55:42;;;;;;;;;0.00;0.00;;;;;17.67;100.00;101871.66;2087429;28;46157;-66
2024/01/24 02:56:42;;;;;;;;;0.00;0.00;;;;;17.68;100.00;101881.47;2087117;28;46324;-67
2024/01/24 02:57:45;;;;;;;;;0.67;0.00;;;;;17.71;100.00;101870.66;2096195;28;46503;-67
2024/01/24 02:58:46;;;;;;;;;0.00;0.00;;;;;17.70;100.00;101868.91;2095971;28;46087;-67
2024/01/24 02:59:47;;;;;;;;;0.00;0.00;;;;;17.71;100.00;101885.88;2095976;28;47176;-67
2024/01/24 03:00:47;;;;;;;;;0.00;0.00;;;;;17.70;100.00;101879.63;2095714;28;46342;-67
2024/01/24 03:01:47;;;;;;;;;0.00;0.00;;;;;17.70;100.00;101874.25;2094668;28;46099;-66
2024/01/24 03:02:48;;;;;;;;;0.00;0.00;;;;;17.59;100.00;101873.69;2095438;28;46886;-66
2024/01/24 03:03:48;;;;;;;;;0.00;0.00;;;;;17.70;100.00;101868.03;2096380;28;45600;-66
2024/01/24 03:04:48;;;;;;;;;0.00;0.00;;;;;17.72;100.00;101872.41;2095889;28;47341;-65
2024/01/24 03:05:48;;;;;;;;;0.00;0.00;;;;;17.74;100.00;101878.59;2096166;28;46782;-66
2024/01/24 03:06:49;;;;;;;;;0.00;0.00;;;;;17.73;100.00;101867.91;2096124;28;46258;-66
2024/01/24 03:07:49;;;;;;;;;0.00;0.00;;;;;17.75;100.00;101876.78;2096111;28;46825;-66
2024/01/24 03:08:57;;;;;;;;;0.00;0.00;;;;;17.77;100.00;101874.94;2095959;28;46885;-66
2024/01/24 03:09:57;;;;;;;;;0.00;0.00;;;;;17.77;100.00;101872.25;2095883;28;47310;-66
2024/01/24 03:10:57;;;;;;;;;0.00;0.00;;;;;17.77;100.00;101872.25;2096064;28;46461;-66
2024/01/24 03:11:58;;;;;;;;;0.00;0.00;;;;;17.78;100.00;101882.03;2095818;28;46274;-66
2024/01/24 03:12:58;;;;;;;;;0.00;0.00;;;;;17.77;100.00;101883.84;2095998;28;46934;-67
2024/01/24 03:13:58;;;;;;;;;0.00;0.00;;;;;17.78;100.00;101880.25;2095871;28;46433;-67
2024/01/24 03:14:59;;;;;;;;;0.00;0.00;;;;;17.78;100.00;101874.00;2094996;28;46584;-67
2024/01/24 03:16:00;;;;;;;;;0.00;0.00;;;;;17.78;100.00;101868.63;2095939;28;46325;-67
2024/01/24 03:17:01;;;;;;;;;0.00;0.00;;;;;17.79;100.00;101873.09;2095888;28;46448;-67
2024/01/24 03:18:01;;;;;;;;;0.00;0.00;;;;;17.78;100.00;101885.59;2093877;28;46169;-66
2024/01/24 03:19:03;;;;;;;;;0.00;0.00;;;;;17.78;100.00;101882.03;2095709;28;46246;-66
2024/01/24 03:20:04;;;;;;;;;0.00;0.00;;;;;17.77;100.00;101889.22;2096405;28;46701;-67
2024/01/24 03:21:09;;;;;;;;;0.00;0.00;;;;;17.79;100.00;101898.13;2096154;28;46801;-67
2024/01/24 03:22:09;;;;;;;;;0.00;0.00;;;;;17.77;100.00;101878.50;2095312;28;46313;-67
2024/01/24 03:23:12;;;;;;;;;0.00;0.00;;;;;17.78;100.00;101890.09;2095725;28;46502;-65
2024/01/24 03:24:12;;;;;;;;;0.00;0.00;;;;;17.79;100.00;101883.84;2095618;28;46853;-66
2024/01/24 03:25:16;;;;;;;;;0.00;0.00;;;;;17.79;100.00;101876.66;2096074;28;46297;-68
2024/01/24 03:26:16;;;;;;;;;0.00;0.00;;;;;17.78;100.00;101865.94;2095410;28;46593;-66
2024/01/24 03:27:16;;;;;;;;;0.00;0.00;;;;;17.79;100.00;101878.47;2096580;28;46271;-67
2024/01/24 03:28:17;;;;;;;;;0.00;0.00;;;;;17.78;100.00;101885.59;2095878;28;46113;-66
2024/01/24 03:29:17;;;;;;;;;0.00;0.00;;;;;17.77;100.00;101878.50;2095771;28;46462;-67
2024/01/24 03:30:17;;;;;;;;;0.00;0.00;;;;;17.78;100.00;101879.38;2095668;28;46490;-66
2024/01/24 03:31:18;;;;;;;;;0.00;0.00;;;;;17.76;100.00;101867.81;2096023;28;46085;-67
2024/01/24 03:32:18;;;;;;;;;0.00;0.00;;;;;17.77;100.00;101866.88;2095900;28;46650;-66
2024/01/24 03:33:19;;;;;;;;;0.00;0.00;;;;;17.77;100.00;101870.44;2096096;28;45375;-67
2024/01/24 03:34:19;;;;;;;;;0.00;0.00;;;;;17.76;100.00;101883.91;2095622;28;46741;-66
2024/01/24 03:35:19;;;;;;;;;0.00;0.00;;;;;17.77;100.00;101874.94;2094404;28;46594;-67
2024/01/24 03:36:20;;;;;;;;;0.00;0.00;;;;;17.77;100.00;101869.56;2094884;28;45932;-66
2024/01/24 03:37:20;;;;;;;;;0.00;0.00;;;;;17.76;100.00;101868.69;2095117;28;46708;-67
2024/01/24 03:38:21;;;;;;;;;0.00;0.00;;;;;17.77;100.00;101874.94;2095417;28;46709;-67
2024/01/24 03:39:21;;;;;;;;;0.00;0.00;;;;;17.75;100.00;101872.28;2095439;28;46865;-67
2024/01/24 03:40:21;;;;;;;;;0.00;0.00;;;;;17.78;100.00;101860.56;2096137;28;46551;-66
2024/01/24 03:41:22;;;;;;;;;0.00;0.00;;;;;17.77;100.00;101865.06;2095821;28;46080;-67
2024/01/24 03:42:22;;;;;;;;;0.00;0.00;;;;;17.79;100.00;101865.03;2095776;28;47009;-67
2024/01/24 03:43:22;;;;;;;;;0.00;0.00;;;;;17.79;100.00;101859.66;2095779;28;46790;-66
2024/01/24 03:44:23;;;;;;;;;0.00;0.00;;;;;17.79;100.00;101865.03;2095787;28;45818;-66
2024/01/24 03:45:23;;;;;;;;;0.00;0.00;;;;;17.79;100.00;101862.34;2095522;28;46870;-66
2024/01/24 03:46:23;;;;;;;;;0.00;0.00;;;;;17.80;100.00;101867.66;2095589;28;46197;-66
2024/01/24 03:47:24;;;;;;;;;0.00;0.00;;;;;17.80;100.00;101859.63;2095166;28;46411;-66
2024/01/24 03:48:24;;;;;;;;;0.00;0.00;;;;;17.80;100.00;101856.94;2095135;28;46265;-66
2024/01/24 03:49:24;;;;;;;;;0.00;0.00;;;;;17.80;100.00;101858.75;2095920;28;46827;-66
2024/01/24 03:50:25;;;;;;;;;0.00;0.00;;;;;17.81;100.00;101865.84;2095945;28;46839;-65
2024/01/24 03:51:25;;;;;;;;;0.00;0.00;;;;;17.82;100.00;101852.38;2095376;28;46006;-67
2024/01/24 03:52:25;;;;;;;;;0.00;0.00;;;;;17.82;100.00;101862.25;2095342;28;46693;-64
2024/01/24 03:53:26;;;;;;;;;0.00;0.00;;;;;17.82;100.00;101864.94;2095812;28;46687;-66
2024/01/24 03:54:26;;;;;;;;;0.00;0.00;;;;;17.83;100.00;101855.94;2095772;28;47233;-66
2024/01/24 03:55:26;;;;;;;;;0.00;0.00;;;;;17.83;100.00;101872.06;2095518;28;46297;-66
2024/01/24 03:56:26;;;;;;;;;0.00;0.00;;;;;17.83;100.00;101875.63;2095913;28;46008;-66
2024/01/24 03:57:27;;;;;;;;;0.00;0.00;;;;;17.83;100.00;101866.69;2095734;28;46758;-67
2024/01/24 03:58:27;;;;;;;;;0.00;0.00;;;;;17.84;100.00;101869.31;2103375;28;46841;-65
2024/01/24 03:59:27;;;;;;;;;0.00;0.00;;;;;17.84;100.00;101853.19;2103177;27;46658;-66
2024/01/24 04:00:28;;;;;;;;;0.00;0.00;;;;;17.83;100.00;101862.19;2095943;28;46296;-67
2024/01/24 04:01:28;;;;;;;;;0.00;0.00;;;;;17.84;100.00;101849.63;2096103;28;46207;-66
2024/01/24 04:02:28;;;;;;;;;0.00;0.00;;;;;17.88;100.00;101859.34;2094410;28;46342;-67
2024/01/24 04:03:29;;;;;;;;;0.00;0.00;;;;;17.89;100.00;101864.66;2094392;28;46599;-67
2024/01/24 04:04:29;;;;;;;;;0.00;0.00;;;;;17.89;100.00;101864.66;2095599;28;46485;-67
2024/01/24 04:05:30;;;;;;;;;0.00;0.00;;;;;17.89;100.00;101863.78;2095996;28;46097;-67
2024/01/24 04:06:30;;;;;;;;;0.00;0.00;;;;;17.91;100.00;101864.59;2095725;28;46179;-66
2024/01/24 04:07:31;;;;;;;;;0.00;0.00;;;;;17.91;100.00;101865.50;2094995;28;46669;-67
2024/01/24 04:08:31;;;;;;;;;0.00;0.00;;;;;17.90;100.00;101855.66;2094203;28;45535;-66
2024/01/24 04:09:31;;;;;;;;;0.00;0.00;;;;;17.90;100.00;101879.84;2095072;28;46545;-66
2024/01/24 04:10:32;;;;;;;;;0.00;0.00;;;;;17.91;100.00;101865.50;2095920;28;46328;-66
2024/01/24 04:11:32;;;;;;;;;0.00;0.00;;;;;17.93;100.00;101870.81;2095880;28;46520;-66
2024/01/24 04:12:32;;;;;;;;;0.00;0.00;;;;;17.91;100.00;101870.88;2095833;28;46698;-66
2024/01/24 04:13:32;;;;;;;;;0.00;0.00;;;;;17.92;100.00;101879.81;2095450;28;46730;-66
2024/01/24 04:14:33;;;;;;;;;0.00;0.00;;;;;17.91;100.00;101876.25;2095195;28;47786;-66
2024/01/24 04:15:33;;;;;;;;;0.00;0.00;;;;;17.88;100.00;101873.63;2095191;28;46580;-65
2024/01/24 04:16:38;;;;;;;;;0.00;0.00;;;;;17.89;100.00;101869.16;2095948;28;46162;-66
2024/01/24 04:17:38;;;;;;;;;0.00;0.00;;;;;17.87;100.00;101871.00;2095520;28;46922;-66
2024/01/24 04:18:38;;;;;;;;;0.00;0.00;;;;;17.88;100.00;101873.63;2095805;28;46548;-67
2024/01/24 04:19:39;;;;;;;;;0.00;0.00;;;;;17.90;100.00;101870.91;2094940;28;46718;-66
2024/01/24 04:20:39;;;;;;;;;0.00;0.00;;;;;17.88;100.00;101868.28;2095220;28;46677;-67
2024/01/24 04:21:42;;;;;;;;;0.00;0.00;;;;;17.90;100.00;101877.16;2096027;28;46727;-66
2024/01/24 04:22:42;;;;;;;;;0.00;0.00;;;;;17.92;100.00;101874.44;2094843;28;45736;-66
2024/01/24 04:23:43;;;;;;;;;0.00;0.00;;;;;17.96;100.00;101883.25;2094172;28;46306;-66
2024/01/24 04:24:44;;;;;;;;;0.00;0.00;;;;;17.96;100.00;101885.94;2095073;28;46806;-66
2024/01/24 04:25:44;;;;;;;;;0.00;0.00;;;;;17.96;100.00;101872.50;2094342;28;47017;-66
2024/01/24 04:26:44;;;;;;;;;0.00;0.00;;;;;17.98;100.00;101881.41;2094952;28;46303;-66
2024/01/24 04:27:45;;;;;;;;;0.00;0.00;;;;;17.99;100.00;101875.09;2094802;28;46736;-66
2024/01/24 04:28:45;;;;;;;;;0.00;0.00;;;;;18.00;100.00;101877.72;2095426;28;46625;-66
2024/01/24 04:29:46;;;;;;;;;0.00;0.00;;;;;18.02;100.00;101883.03;2094381;28;46679;-67
2024/01/24 04:30:46;;;;;;;;;0.00;0.00;;;;;18.03;100.00;101890.16;2094165;28;46339;-66
2024/01/24 04:31:46;;;;;;;;;0.00;0.00;;;;;18.03;100.00;101885.66;2094769;28;46532;-66
2024/01/24 04:32:46;;;;;;;;;0.00;0.00;;;;;18.04;100.00;101884.78;2086893;28;47055;-67
2024/01/24 04:33:47;;;;;;;;;0.00;0.00;;;;;18.03;100.00;101885.66;2094831;28;46774;-66
2024/01/24 04:34:47;;;;;;;;;0.00;0.00;;;;;18.05;100.00;101885.66;2095322;28;46281;-67
2024/01/24 04:35:48;;;;;;;;;0.00;0.00;;;;;18.06;100.00;101896.34;2095651;28;46525;-67
2024/01/24 04:36:49;;;;;;;;;0.00;0.00;;;;;18.09;100.00;101892.66;2094937;28;46677;-66
2024/01/24 04:37:49;;;;;;;;;0.00;0.00;;;;;18.04;100.00;101897.28;2095687;28;46717;-67
2024/01/24 04:38:49;;;;;;;;;0.00;0.00;;;;;18.03;100.00;101899.09;2095072;28;47010;-67